sensor_id;sensor_type;location;lat;lon;timestamp;pressure;altitude;pressure_sealevel;temperature;humidity
59831;BME280;45711;50.108;13.712;2022-12-18T00:00:39;99250.28;;;-11.36;82.17
59831;BME280;45711;50.108;13.712;2022-12-18T00:03:05;99248.97;;;-11.54;82.67
59831;BME280;45711;50.108;13.712;2022-12-18T00:05:30;99244.34;;;-11.62;84.12
59831;BME280;45711;50.108;13.712;2022-12-18T00:07:56;99244.94;;;-11.58;85.27
59831;BME280;45711;50.108;13.712;2022-12-18T00:10:21;99250.81;;;-11.44;85.55
59831;BME280;45711;50.108;13.712;2022-12-18T00:12:48;99254.75;;;-11.51;84.89
59831;BME280;45711;50.108;13.712;2022-12-18T00:15:14;99262.59;;;-11.52;84.15
59831;BME280;45711;50.108;13.712;2022-12-18T00:17:40;99257.31;;;-11.51;84.52
59831;BME280;45711;50.108;13.712;2022-12-18T00:20:07;99260.22;;;-11.43;84.78
59831;BME280;45711;50.108;13.712;2022-12-18T00:22:33;99262.59;;;-11.40;83.73
59831;BME280;45711;50.108;13.712;2022-12-18T00:24:58;99252.53;;;-11.31;83.57
59831;BME280;45711;50.108;13.712;2022-12-18T00:27:24;99260.81;;;-11.39;83.51
59831;BME280;45711;50.108;13.712;2022-12-18T00:29:51;99258.88;;;-11.48;82.54
59831;BME280;45711;50.108;13.712;2022-12-18T00:32:17;99268.28;;;-11.47;82.36
59831;BME280;45711;50.108;13.712;2022-12-18T00:34:42;99276.16;;;-11.49;82.75
59831;BME280;45711;50.108;13.712;2022-12-18T00:37:08;99281.31;;;-11.49;82.61
59831;BME280;45711;50.108;13.712;2022-12-18T00:39:34;99291.53;;;-11.47;82.45
59831;BME280;45711;50.108;13.712;2022-12-18T00:42:02;99283.97;;;-11.50;82.66
59831;BME280;45711;50.108;13.712;2022-12-18T00:44:46;99282.47;;;-11.66;83.44
59831;BME280;45711;50.108;13.712;2022-12-18T00:47:15;99287.69;;;-11.54;82.95
59831;BME280;45711;50.108;13.712;2022-12-18T00:49:41;99287.81;;;-11.56;82.18
59831;BME280;45711;50.108;13.712;2022-12-18T00:52:10;99294.75;;;-11.69;82.20
59831;BME280;45711;50.108;13.712;2022-12-18T00:54:35;99295.38;;;-11.78;82.26
59831;BME280;45711;50.108;13.712;2022-12-18T00:57:07;99284.72;;;-11.74;82.26
59831;BME280;45711;50.108;13.712;2022-12-18T00:59:38;99283.59;;;-11.70;82.32
59831;BME280;45711;50.108;13.712;2022-12-18T01:02:07;99278.75;;;-11.61;82.10
59831;BME280;45711;50.108;13.712;2022-12-18T01:04:34;99290.91;;;-11.63;81.42
59831;BME280;45711;50.108;13.712;2022-12-18T01:07:00;99286.50;;;-11.61;81.68
59831;BME280;45711;50.108;13.712;2022-12-18T01:09:28;99296.91;;;-11.76;81.87
59831;BME280;45711;50.108;13.712;2022-12-18T01:11:54;99304.34;;;-11.71;81.68
59831;BME280;45711;50.108;13.712;2022-12-18T01:14:20;99299.13;;;-11.82;80.66
59831;BME280;45711;50.108;13.712;2022-12-18T01:16:45;99302.31;;;-11.92;80.70
59831;BME280;45711;50.108;13.712;2022-12-18T01:19:11;99294.44;;;-12.16;81.19
59831;BME280;45711;50.108;13.712;2022-12-18T01:21:41;99296.94;;;-12.14;80.25
59831;BME280;45711;50.108;13.712;2022-12-18T01:24:07;99304.06;;;-12.05;80.56
59831;BME280;45711;50.108;13.712;2022-12-18T01:26:32;99304.16;;;-12.06;81.55
59831;BME280;45711;50.108;13.712;2022-12-18T01:28:58;99315.63;;;-11.98;81.03
59831;BME280;45711;50.108;13.712;2022-12-18T01:31:28;99312.53;;;-11.90;80.80
59831;BME280;45711;50.108;13.712;2022-12-18T01:33:55;99324.72;;;-12.05;80.21
59831;BME280;45711;50.108;13.712;2022-12-18T01:36:23;99326.78;;;-12.10;79.50
59831;BME280;45711;50.108;13.712;2022-12-18T01:38:50;99340.81;;;-12.14;79.70
59831;BME280;45711;50.108;13.712;2022-12-18T01:41:19;99331.81;;;-12.21;80.23
59831;BME280;45711;50.108;13.712;2022-12-18T01:44:00;99338.72;;;-12.22;79.95
59831;BME280;45711;50.108;13.712;2022-12-18T01:46:29;99336.47;;;-12.13;79.91
59831;BME280;45711;50.108;13.712;2022-12-18T01:48:57;99330.25;;;-12.11;80.03
59831;BME280;45711;50.108;13.712;2022-12-18T01:51:25;99341.22;;;-11.82;80.71
59831;BME280;45711;50.108;13.712;2022-12-18T01:53:54;99346.22;;;-11.92;80.34
59831;BME280;45711;50.108;13.712;2022-12-18T01:56:24;99337.00;;;-11.70;80.30
59831;BME280;45711;50.108;13.712;2022-12-18T01:58:57;99336.47;;;-11.62;80.08
59831;BME280;45711;50.108;13.712;2022-12-18T02:01:25;99330.91;;;-11.56;80.52
59831;BME280;45711;50.108;13.712;2022-12-18T02:03:56;99343.09;;;-11.46;80.85
59831;BME280;45711;50.108;13.712;2022-12-18T02:06:38;99343.19;;;-11.22;80.95
59831;BME280;45711;50.108;13.712;2022-12-18T02:09:13;99336.03;;;-11.05;79.16
59831;BME280;45711;50.108;13.712;2022-12-18T02:11:49;99328.97;;;-11.03;79.56
59831;BME280;45711;50.108;13.712;2022-12-18T02:14:24;99336.59;;;-10.89;79.91
59831;BME280;45711;50.108;13.712;2022-12-18T02:17:01;99334.66;;;-10.98;80.31
59831;BME280;45711;50.108;13.712;2022-12-18T02:19:43;99334.75;;;-11.00;79.53
59831;BME280;45711;50.108;13.712;2022-12-18T02:22:26;99340.91;;;-11.13;80.00
59831;BME280;45711;50.108;13.712;2022-12-18T02:25:06;99352.78;;;-11.11;80.20
59831;BME280;45711;50.108;13.712;2022-12-18T02:27:43;99357.03;;;-11.23;80.34
59831;BME280;45711;50.108;13.712;2022-12-18T02:30:11;99363.03;;;-11.22;80.54
59831;BME280;45711;50.108;13.712;2022-12-18T02:32:41;99369.75;;;-11.32;79.85
59831;BME280;45711;50.108;13.712;2022-12-18T02:35:14;99360.25;;;-11.45;79.69
59831;BME280;45711;50.108;13.712;2022-12-18T02:37:46;99355.28;;;-11.35;80.15
59831;BME280;45711;50.108;13.712;2022-12-18T02:40:16;99355.06;;;-11.19;80.17
59831;BME280;45711;50.108;13.712;2022-12-18T02:42:44;99371.81;;;-11.12;81.15
59831;BME280;45711;50.108;13.712;2022-12-18T02:45:10;99367.38;;;-11.35;79.61
59831;BME280;45711;50.108;13.712;2022-12-18T02:47:38;99358.50;;;-11.19;80.69
59831;BME280;45711;50.108;13.712;2022-12-18T02:50:09;99360.22;;;-11.19;80.11
59831;BME280;45711;50.108;13.712;2022-12-18T02:52:48;99363.59;;;-11.06;79.94
59831;BME280;45711;50.108;13.712;2022-12-18T02:55:27;99358.56;;;-11.07;79.83
59831;BME280;45711;50.108;13.712;2022-12-18T02:57:58;99361.44;;;-10.99;80.17
59831;BME280;45711;50.108;13.712;2022-12-18T03:00:34;99363.97;;;-10.74;80.75
59831;BME280;45711;50.108;13.712;2022-12-18T03:03:07;99368.66;;;-10.79;80.18
59831;BME280;45711;50.108;13.712;2022-12-18T03:05:38;99374.22;;;-10.85;80.68
59831;BME280;45711;50.108;13.712;2022-12-18T03:08:08;99364.03;;;-10.63;80.31
59831;BME280;45711;50.108;13.712;2022-12-18T03:10:46;99367.66;;;-10.65;80.54
59831;BME280;45711;50.108;13.712;2022-12-18T03:13:23;99364.44;;;-10.56;80.22
59831;BME280;45711;50.108;13.712;2022-12-18T03:15:55;99368.03;;;-10.58;79.68
59831;BME280;45711;50.108;13.712;2022-12-18T03:18:24;99360.56;;;-10.50;79.98
59831;BME280;45711;50.108;13.712;2022-12-18T03:20:53;99372.47;;;-10.48;80.27
59831;BME280;45711;50.108;13.712;2022-12-18T03:23:24;99361.09;;;-10.58;79.78
59831;BME280;45711;50.108;13.712;2022-12-18T03:25:57;99368.88;;;-10.58;80.53
59831;BME280;45711;50.108;13.712;2022-12-18T03:28:31;99370.59;;;-10.46;79.57
59831;BME280;45711;50.108;13.712;2022-12-18T03:31:02;99373.75;;;-10.53;79.71
59831;BME280;45711;50.108;13.712;2022-12-18T03:33:42;99381.56;;;-10.42;80.33
59831;BME280;45711;50.108;13.712;2022-12-18T03:36:12;99371.00;;;-10.39;79.17
59831;BME280;45711;50.108;13.712;2022-12-18T03:38:38;99379.91;;;-10.43;79.75
59831;BME280;45711;50.108;13.712;2022-12-18T03:41:09;99373.75;;;-10.53;79.15
59831;BME280;45711;50.108;13.712;2022-12-18T03:43:48;99376.97;;;-10.63;79.50
59831;BME280;45711;50.108;13.712;2022-12-18T03:46:23;99373.34;;;-10.60;79.89
59831;BME280;45711;50.108;13.712;2022-12-18T03:48:53;99374.03;;;-10.82;79.10
59831;BME280;45711;50.108;13.712;2022-12-18T03:51:25;99372.63;;;-10.62;79.29
59831;BME280;45711;50.108;13.712;2022-12-18T03:53:57;99381.22;;;-10.61;78.88
59831;BME280;45711;50.108;13.712;2022-12-18T03:56:25;99380.63;;;-10.78;78.71
59831;BME280;45711;50.108;13.712;2022-12-18T03:58:55;99389.09;;;-10.76;79.27
59831;BME280;45711;50.108;13.712;2022-12-18T04:01:25;99379.13;;;-10.56;79.92
59831;BME280;45711;50.108;13.712;2022-12-18T04:03:55;99398.19;;;-10.57;79.29
59831;BME280;45711;50.108;13.712;2022-12-18T04:06:22;99391.63;;;-10.50;79.70
59831;BME280;45711;50.108;13.712;2022-12-18T04:08:48;99399.06;;;-10.46;79.28
59831;BME280;45711;50.108;13.712;2022-12-18T04:11:14;99404.50;;;-10.38;79.77
59831;BME280;45711;50.108;13.712;2022-12-18T04:13:42;99388.16;;;-10.38;79.57
59831;BME280;45711;50.108;13.712;2022-12-18T04:16:09;99410.34;;;-10.47;79.05
59831;BME280;45711;50.108;13.712;2022-12-18T04:18:36;99405.81;;;-10.56;79.47
59831;BME280;45711;50.108;13.712;2022-12-18T04:21:02;99400.97;;;-10.60;79.52
59831;BME280;45711;50.108;13.712;2022-12-18T04:23:27;99394.63;;;-10.44;81.04
59831;BME280;45711;50.108;13.712;2022-12-18T04:25:53;99410.84;;;-10.18;80.99
59831;BME280;45711;50.108;13.712;2022-12-18T04:28:19;99419.50;;;-10.19;80.02
59831;BME280;45711;50.108;13.712;2022-12-18T04:30:45;99425.72;;;-10.08;80.54
59831;BME280;45711;50.108;13.712;2022-12-18T04:33:13;99421.63;;;-10.00;80.95
59831;BME280;45711;50.108;13.712;2022-12-18T04:35:44;99418.94;;;-10.22;80.16
59831;BME280;45711;50.108;13.712;2022-12-18T04:38:10;99431.19;;;-10.24;79.99
59831;BME280;45711;50.108;13.712;2022-12-18T04:40:35;99420.00;;;-10.25;79.61
59831;BME280;45711;50.108;13.712;2022-12-18T04:43:02;99432.41;;;-10.06;80.53
59831;BME280;45711;50.108;13.712;2022-12-18T04:45:27;99435.00;;;-10.06;80.14
59831;BME280;45711;50.108;13.712;2022-12-18T04:47:53;99438.31;;;-10.04;80.64
59831;BME280;45711;50.108;13.712;2022-12-18T04:50:20;99435.94;;;-10.07;80.17
59831;BME280;45711;50.108;13.712;2022-12-18T04:52:45;99435.25;;;-10.09;80.20
59831;BME280;45711;50.108;13.712;2022-12-18T04:55:11;99439.00;;;-10.13;81.02
59831;BME280;45711;50.108;13.712;2022-12-18T04:57:36;99440.75;;;-10.14;80.69
59831;BME280;45711;50.108;13.712;2022-12-18T05:00:02;99443.88;;;-10.21;80.63
59831;BME280;45711;50.108;13.712;2022-12-18T05:02:27;99446.47;;;-10.21;80.50
59831;BME280;45711;50.108;13.712;2022-12-18T05:04:53;99442.31;;;-10.24;81.11
59831;BME280;45711;50.108;13.712;2022-12-18T05:07:20;99447.44;;;-10.11;81.72
59831;BME280;45711;50.108;13.712;2022-12-18T05:09:45;99457.16;;;-10.02;81.16
59831;BME280;45711;50.108;13.712;2022-12-18T05:12:11;99454.91;;;-9.82;81.31
59831;BME280;45711;50.108;13.712;2022-12-18T05:14:36;99451.78;;;-9.64;81.98
59831;BME280;45711;50.108;13.712;2022-12-18T05:17:02;99454.97;;;-9.60;81.85
59831;BME280;45711;50.108;13.712;2022-12-18T05:19:27;99465.75;;;-9.77;82.31
59831;BME280;45711;50.108;13.712;2022-12-18T05:21:53;99465.69;;;-9.89;82.88
59831;BME280;45711;50.108;13.712;2022-12-18T05:24:19;99465.41;;;-9.73;83.57
59831;BME280;45711;50.108;13.712;2022-12-18T05:26:45;99461.78;;;-9.70;83.80
59831;BME280;45711;50.108;13.712;2022-12-18T05:29:10;99455.59;;;-9.80;83.94
59831;BME280;45711;50.108;13.712;2022-12-18T05:31:37;99457.72;;;-9.85;84.85
59831;BME280;45711;50.108;13.712;2022-12-18T05:34:03;99453.84;;;-9.80;84.52
59831;BME280;45711;50.108;13.712;2022-12-18T05:36:28;99454.09;;;-9.83;85.17
59831;BME280;45711;50.108;13.712;2022-12-18T05:38:54;99458.78;;;-9.88;85.60
59831;BME280;45711;50.108;13.712;2022-12-18T05:41:21;99467.53;;;-9.67;86.55
59831;BME280;45711;50.108;13.712;2022-12-18T05:43:47;99467.66;;;-9.68;85.02
59831;BME280;45711;50.108;13.712;2022-12-18T05:46:14;99477.09;;;-9.67;85.83
59831;BME280;45711;50.108;13.712;2022-12-18T05:48:40;99472.72;;;-9.67;85.69
59831;BME280;45711;50.108;13.712;2022-12-18T05:51:06;99481.84;;;-9.61;86.49
59831;BME280;45711;50.108;13.712;2022-12-18T05:53:32;99480.91;;;-9.60;86.61
59831;BME280;45711;50.108;13.712;2022-12-18T05:56:00;99483.00;;;-9.65;87.06
59831;BME280;45711;50.108;13.712;2022-12-18T05:58:27;99478.22;;;-9.47;87.27
59831;BME280;45711;50.108;13.712;2022-12-18T06:00:52;99476.59;;;-9.48;87.05
59831;BME280;45711;50.108;13.712;2022-12-18T06:03:18;99473.72;;;-9.56;86.41
59831;BME280;45711;50.108;13.712;2022-12-18T06:05:45;99478.75;;;-9.66;86.91
59831;BME280;45711;50.108;13.712;2022-12-18T06:08:11;99482.50;;;-9.70;86.51
59831;BME280;45711;50.108;13.712;2022-12-18T06:10:36;99487.50;;;-9.56;87.82
59831;BME280;45711;50.108;13.712;2022-12-18T06:13:02;99484.09;;;-9.56;86.58
59831;BME280;45711;50.108;13.712;2022-12-18T06:15:29;99485.69;;;-9.67;86.50
59831;BME280;45711;50.108;13.712;2022-12-18T06:17:55;99491.72;;;-9.66;86.63
59831;BME280;45711;50.108;13.712;2022-12-18T06:20:20;99498.28;;;-9.73;86.92
59831;BME280;45711;50.108;13.712;2022-12-18T06:22:46;99503.00;;;-9.67;87.66
59831;BME280;45711;50.108;13.712;2022-12-18T06:25:12;99501.91;;;-9.76;86.67
59831;BME280;45711;50.108;13.712;2022-12-18T06:27:37;99511.66;;;-9.55;88.10
59831;BME280;45711;50.108;13.712;2022-12-18T06:30:03;99510.38;;;-9.50;87.66
59831;BME280;45711;50.108;13.712;2022-12-18T06:32:31;99515.91;;;-9.54;87.44
59831;BME280;45711;50.108;13.712;2022-12-18T06:34:56;99521.19;;;-9.56;87.48
59831;BME280;45711;50.108;13.712;2022-12-18T06:37:22;99521.38;;;-9.70;87.24
59831;BME280;45711;50.108;13.712;2022-12-18T06:39:51;99532.19;;;-9.52;88.96
59831;BME280;45711;50.108;13.712;2022-12-18T06:42:16;99526.88;;;-9.51;87.89
59831;BME280;45711;50.108;13.712;2022-12-18T06:44:42;99531.44;;;-9.54;88.26
59831;BME280;45711;50.108;13.712;2022-12-18T06:47:10;99524.84;;;-9.58;88.51
59831;BME280;45711;50.108;13.712;2022-12-18T06:49:37;99535.19;;;-9.58;89.05
59831;BME280;45711;50.108;13.712;2022-12-18T06:52:03;99529.75;;;-9.43;89.11
59831;BME280;45711;50.108;13.712;2022-12-18T06:54:28;99548.22;;;-9.47;88.54
59831;BME280;45711;50.108;13.712;2022-12-18T06:56:54;99557.28;;;-9.53;88.40
59831;BME280;45711;50.108;13.712;2022-12-18T06:59:20;99554.44;;;-9.50;88.25
59831;BME280;45711;50.108;13.712;2022-12-18T07:01:45;99550.09;;;-9.49;88.11
59831;BME280;45711;50.108;13.712;2022-12-18T07:04:11;99546.34;;;-9.45;88.15
59831;BME280;45711;50.108;13.712;2022-12-18T07:06:38;99546.91;;;-9.53;88.58
59831;BME280;45711;50.108;13.712;2022-12-18T07:09:03;99543.38;;;-9.52;88.96
59831;BME280;45711;50.108;13.712;2022-12-18T07:11:29;99544.81;;;-9.48;89.29
59831;BME280;45711;50.108;13.712;2022-12-18T07:13:54;99551.31;;;-9.42;88.27
59831;BME280;45711;50.108;13.712;2022-12-18T07:16:24;99564.66;;;-9.35;88.89
59831;BME280;45711;50.108;13.712;2022-12-18T07:18:50;99556.00;;;-9.47;89.02
59831;BME280;45711;50.108;13.712;2022-12-18T07:21:18;99560.84;;;-9.43;88.69
59831;BME280;45711;50.108;13.712;2022-12-18T07:23:45;99571.22;;;-9.43;88.74
59831;BME280;45711;50.108;13.712;2022-12-18T07:26:14;99565.88;;;-9.52;88.24
59831;BME280;45711;50.108;13.712;2022-12-18T07:28:41;99572.03;;;-9.42;88.70
59831;BME280;45711;50.108;13.712;2022-12-18T07:31:08;99567.91;;;-9.45;88.76
59831;BME280;45711;50.108;13.712;2022-12-18T07:33:34;99569.13;;;-9.38;89.45
59831;BME280;45711;50.108;13.712;2022-12-18T07:36:04;99573.81;;;-9.43;88.56
59831;BME280;45711;50.108;13.712;2022-12-18T07:38:29;99575.72;;;-9.33;88.94
59831;BME280;45711;50.108;13.712;2022-12-18T07:41:01;99573.28;;;-9.24;88.72
59831;BME280;45711;50.108;13.712;2022-12-18T07:43:27;99583.78;;;-9.25;88.16
59831;BME280;45711;50.108;13.712;2022-12-18T07:45:52;99590.06;;;-9.17;88.63
59831;BME280;45711;50.108;13.712;2022-12-18T07:48:18;99597.34;;;-9.22;88.35
59831;BME280;45711;50.108;13.712;2022-12-18T07:50:43;99588.16;;;-9.15;88.44
59831;BME280;45711;50.108;13.712;2022-12-18T07:53:09;99596.81;;;-9.14;87.74
59831;BME280;45711;50.108;13.712;2022-12-18T07:55:35;99599.75;;;-9.07;88.06
59831;BME280;45711;50.108;13.712;2022-12-18T07:58:03;99601.81;;;-9.00;87.92
59831;BME280;45711;50.108;13.712;2022-12-18T08:00:29;99600.38;;;-9.04;88.52
59831;BME280;45711;50.108;13.712;2022-12-18T08:02:54;99592.59;;;-9.04;88.27
59831;BME280;45711;50.108;13.712;2022-12-18T08:05:20;99591.78;;;-8.93;88.68
59831;BME280;45711;50.108;13.712;2022-12-18T08:07:46;99585.34;;;-8.88;88.71
59831;BME280;45711;50.108;13.712;2022-12-18T08:10:12;99592.06;;;-8.85;87.65
59831;BME280;45711;50.108;13.712;2022-12-18T08:12:39;99592.66;;;-8.81;88.24
59831;BME280;45711;50.108;13.712;2022-12-18T08:15:09;99598.88;;;-8.84;87.90
59831;BME280;45711;50.108;13.712;2022-12-18T08:17:37;99598.31;;;-8.88;88.12
59831;BME280;45711;50.108;13.712;2022-12-18T08:20:03;99585.34;;;-8.88;88.05
59831;BME280;45711;50.108;13.712;2022-12-18T08:22:29;99588.84;;;-8.89;87.95
59831;BME280;45711;50.108;13.712;2022-12-18T08:24:56;99594.75;;;-8.87;89.43
59831;BME280;45711;50.108;13.712;2022-12-18T08:27:21;99597.28;;;-8.74;88.98
59831;BME280;45711;50.108;13.712;2022-12-18T08:29:47;99588.75;;;-8.76;89.06
59831;BME280;45711;50.108;13.712;2022-12-18T08:32:16;99602.56;;;-8.75;89.24
59831;BME280;45711;50.108;13.712;2022-12-18T08:34:43;99596.91;;;-8.80;89.54
59831;BME280;45711;50.108;13.712;2022-12-18T08:37:12;99598.31;;;-8.76;89.30
59831;BME280;45711;50.108;13.712;2022-12-18T08:39:42;99598.53;;;-8.79;89.29
59831;BME280;45711;50.108;13.712;2022-12-18T08:42:07;99591.19;;;-8.62;90.03
59831;BME280;45711;50.108;13.712;2022-12-18T08:44:54;99588.09;;;-8.33;88.90
59831;BME280;45711;50.108;13.712;2022-12-18T08:47:21;99605.00;;;-8.39;88.50
59831;BME280;45711;50.108;13.712;2022-12-18T08:49:46;99616.31;;;-8.51;89.65
59831;BME280;45711;50.108;13.712;2022-12-18T08:52:12;99614.91;;;-8.44;89.70
59831;BME280;45711;50.108;13.712;2022-12-18T08:54:39;99613.84;;;-8.41;89.07
59831;BME280;45711;50.108;13.712;2022-12-18T08:57:07;99595.06;;;-8.33;89.11
59831;BME280;45711;50.108;13.712;2022-12-18T08:59:33;99602.88;;;-8.22;88.33
59831;BME280;45711;50.108;13.712;2022-12-18T09:02:10;99588.34;;;-8.25;88.25
59831;BME280;45711;50.108;13.712;2022-12-18T09:04:37;99585.59;;;-8.23;88.38
59831;BME280;45711;50.108;13.712;2022-12-18T09:07:03;99592.34;;;-8.21;88.92
59831;BME280;45711;50.108;13.712;2022-12-18T09:09:31;99593.03;;;-8.19;89.47
59831;BME280;45711;50.108;13.712;2022-12-18T09:12:06;99600.16;;;-8.10;89.34
59831;BME280;45711;50.108;13.712;2022-12-18T09:14:31;99610.41;;;-8.08;88.75
59831;BME280;45711;50.108;13.712;2022-12-18T09:16:57;99623.16;;;-8.16;89.13
59831;BME280;45711;50.108;13.712;2022-12-18T09:19:22;99626.94;;;-7.98;88.22
59831;BME280;45711;50.108;13.712;2022-12-18T09:21:57;99637.59;;;-8.01;88.38
59831;BME280;45711;50.108;13.712;2022-12-18T09:24:22;99633.47;;;-7.92;88.12
59831;BME280;45711;50.108;13.712;2022-12-18T09:26:48;99629.31;;;-8.06;88.65
59831;BME280;45711;50.108;13.712;2022-12-18T09:29:14;99631.19;;;-7.86;88.67
59831;BME280;45711;50.108;13.712;2022-12-18T09:31:39;99634.97;;;-7.78;88.21
59831;BME280;45711;50.108;13.712;2022-12-18T09:34:05;99628.25;;;-7.81;89.06
59831;BME280;45711;50.108;13.712;2022-12-18T09:36:38;99646.53;;;-7.60;89.50
59831;BME280;45711;50.108;13.712;2022-12-18T09:39:05;99652.69;;;-7.61;88.59
59831;BME280;45711;50.108;13.712;2022-12-18T09:41:42;99647.50;;;-7.61;88.70
59831;BME280;45711;50.108;13.712;2022-12-18T09:44:15;99643.22;;;-7.51;88.82
59831;BME280;45711;50.108;13.712;2022-12-18T09:46:44;99653.69;;;-7.30;88.20
59831;BME280;45711;50.108;13.712;2022-12-18T09:49:14;99640.78;;;-7.20;87.96
59831;BME280;45711;50.108;13.712;2022-12-18T09:51:43;99644.53;;;-7.13;87.54
59831;BME280;45711;50.108;13.712;2022-12-18T09:54:14;99647.00;;;-7.12;87.21
59831;BME280;45711;50.108;13.712;2022-12-18T09:56:43;99642.16;;;-7.05;87.46
59831;BME280;45711;50.108;13.712;2022-12-18T09:59:18;99627.88;;;-6.90;86.75
59831;BME280;45711;50.108;13.712;2022-12-18T10:01:45;99627.78;;;-6.67;86.69
59831;BME280;45711;50.108;13.712;2022-12-18T10:04:11;99623.34;;;-6.55;86.24
59831;BME280;45711;50.108;13.712;2022-12-18T10:06:41;99616.53;;;-6.47;85.70
59831;BME280;45711;50.108;13.712;2022-12-18T10:09:17;99612.47;;;-6.40;86.02
59831;BME280;45711;50.108;13.712;2022-12-18T10:11:51;99609.72;;;-6.38;85.31
59831;BME280;45711;50.108;13.712;2022-12-18T10:14:22;99603.50;;;-6.26;86.30
59831;BME280;45711;50.108;13.712;2022-12-18T10:16:59;99597.72;;;-6.29;85.17
59831;BME280;45711;50.108;13.712;2022-12-18T10:19:36;99597.88;;;-6.21;85.30
59831;BME280;45711;50.108;13.712;2022-12-18T10:22:13;99598.59;;;-6.10;86.20
59831;BME280;45711;50.108;13.712;2022-12-18T10:24:52;99590.41;;;-6.05;84.72
59831;BME280;45711;50.108;13.712;2022-12-18T10:27:23;99596.31;;;-6.03;85.28
59831;BME280;45711;50.108;13.712;2022-12-18T10:29:50;99584.28;;;-6.25;85.36
59831;BME280;45711;50.108;13.712;2022-12-18T10:32:17;99580.06;;;-6.16;85.49
59831;BME280;45711;50.108;13.712;2022-12-18T10:34:50;99577.91;;;-6.11;84.74
59831;BME280;45711;50.108;13.712;2022-12-18T10:37:19;99580.00;;;-6.05;84.96
59831;BME280;45711;50.108;13.712;2022-12-18T10:39:46;99569.03;;;-5.99;84.29
59831;BME280;45711;50.108;13.712;2022-12-18T10:42:29;99555.72;;;-5.86;84.02
59831;BME280;45711;50.108;13.712;2022-12-18T10:45:00;99556.41;;;-5.94;84.62
59831;BME280;45711;50.108;13.712;2022-12-18T10:47:26;99561.34;;;-6.00;84.41
59831;BME280;45711;50.108;13.712;2022-12-18T10:49:53;99558.59;;;-5.99;84.60
59831;BME280;45711;50.108;13.712;2022-12-18T10:52:26;99562.84;;;-5.88;84.93
59831;BME280;45711;50.108;13.712;2022-12-18T10:54:55;99556.47;;;-5.65;84.24
59831;BME280;45711;50.108;13.712;2022-12-18T10:57:34;99559.50;;;-5.60;84.13
59831;BME280;45711;50.108;13.712;2022-12-18T11:00:21;99554.94;;;-5.67;83.69
59831;BME280;45711;50.108;13.712;2022-12-18T11:02:48;99560.03;;;-5.66;84.00
59831;BME280;45711;50.108;13.712;2022-12-18T11:05:26;99558.22;;;-5.75;84.80
59831;BME280;45711;50.108;13.712;2022-12-18T11:07:52;99558.09;;;-5.64;84.96
59831;BME280;45711;50.108;13.712;2022-12-18T11:10:22;99556.16;;;-5.62;84.98
59831;BME280;45711;50.108;13.712;2022-12-18T11:12:48;99566.16;;;-5.86;84.86
59831;BME280;45711;50.108;13.712;2022-12-18T11:15:16;99565.06;;;-5.84;86.08
59831;BME280;45711;50.108;13.712;2022-12-18T11:17:52;99562.59;;;-5.75;84.84
59831;BME280;45711;50.108;13.712;2022-12-18T11:20:23;99557.53;;;-5.67;85.20
59831;BME280;45711;50.108;13.712;2022-12-18T11:22:56;99556.63;;;-5.47;85.06
59831;BME280;45711;50.108;13.712;2022-12-18T11:25:24;99560.34;;;-5.40;85.42
59831;BME280;45711;50.108;13.712;2022-12-18T11:27:52;99563.78;;;-5.39;84.26
59831;BME280;45711;50.108;13.712;2022-12-18T11:30:23;99564.75;;;-5.31;83.99
59831;BME280;45711;50.108;13.712;2022-12-18T11:32:51;99573.00;;;-5.25;84.35
59831;BME280;45711;50.108;13.712;2022-12-18T11:35:19;99570.38;;;-5.16;84.41
59831;BME280;45711;50.108;13.712;2022-12-18T11:37:50;99570.78;;;-5.01;84.11
59831;BME280;45711;50.108;13.712;2022-12-18T11:40:22;99569.00;;;-5.00;83.91
59831;BME280;45711;50.108;13.712;2022-12-18T11:42:54;99566.38;;;-5.10;84.24
59831;BME280;45711;50.108;13.712;2022-12-18T11:45:28;99560.75;;;-5.06;84.31
59831;BME280;45711;50.108;13.712;2022-12-18T11:47:58;99561.84;;;-4.89;84.32
59831;BME280;45711;50.108;13.712;2022-12-18T11:50:29;99555.09;;;-4.82;83.78
59831;BME280;45711;50.108;13.712;2022-12-18T11:52:57;99547.81;;;-4.88;83.54
59831;BME280;45711;50.108;13.712;2022-12-18T11:55:30;99548.34;;;-4.84;84.17
59831;BME280;45711;50.108;13.712;2022-12-18T11:58:07;99555.63;;;-4.88;84.09
59831;BME280;45711;50.108;13.712;2022-12-18T12:00:39;99549.06;;;-4.92;83.85
59831;BME280;45711;50.108;13.712;2022-12-18T12:03:22;99539.44;;;-4.91;84.65
59831;BME280;45711;50.108;13.712;2022-12-18T12:06:00;99545.91;;;-4.86;84.66
59831;BME280;45711;50.108;13.712;2022-12-18T12:08:37;99543.84;;;-4.92;84.90
59831;BME280;45711;50.108;13.712;2022-12-18T12:11:11;99545.19;;;-4.88;84.89
59831;BME280;45711;50.108;13.712;2022-12-18T12:13:49;99545.50;;;-4.91;84.89
59831;BME280;45711;50.108;13.712;2022-12-18T12:16:23;99542.47;;;-5.15;85.09
59831;BME280;45711;50.108;13.712;2022-12-18T12:19:00;99544.66;;;-5.01;85.08
59831;BME280;45711;50.108;13.712;2022-12-18T12:21:36;99549.75;;;-4.90;84.59
59831;BME280;45711;50.108;13.712;2022-12-18T12:24:14;99538.63;;;-4.92;84.91
59831;BME280;45711;50.108;13.712;2022-12-18T12:26:50;99554.41;;;-4.84;84.79
59831;BME280;45711;50.108;13.712;2022-12-18T12:29:31;99552.50;;;-4.91;84.84
59831;BME280;45711;50.108;13.712;2022-12-18T12:32:10;99556.91;;;-4.92;84.97
59831;BME280;45711;50.108;13.712;2022-12-18T12:34:46;99556.34;;;-4.86;85.24
59831;BME280;45711;50.108;13.712;2022-12-18T12:37:24;99562.75;;;-4.70;84.84
59831;BME280;45711;50.108;13.712;2022-12-18T12:39:53;99559.09;;;-4.87;84.73
59831;BME280;45711;50.108;13.712;2022-12-18T12:42:35;99579.16;;;-5.07;85.66
59831;BME280;45711;50.108;13.712;2022-12-18T12:45:36;99580.78;;;-4.96;86.17
59831;BME280;45711;50.108;13.712;2022-12-18T12:48:06;99578.34;;;-5.08;85.45
59831;BME280;45711;50.108;13.712;2022-12-18T12:50:37;99564.19;;;-4.95;85.26
59831;BME280;45711;50.108;13.712;2022-12-18T12:53:07;99566.50;;;-4.92;85.22
59831;BME280;45711;50.108;13.712;2022-12-18T12:55:38;99566.38;;;-4.91;85.26